Tiempo atmosférico en la estación meteorológica de Vinaròs, Castelló/Castellón (110 m.)



Fecha
DESCASC
Temp. máxima en grados centígrados (hora)
DESCASC
Temp. mínima en grados centígrados (hora)
DESCASC
Temp. media en grados centígrados
DESCASC
Racha de viento máxima en m/sg (hora)
DESCASC
Velocidad máxima media en intervalos de 10 minutos(hora)
DESCASC
Precipitaciones diarias en mm
DESCASC
Precipitaciones de 00:00 a 06:00 en mm
DESCASC
Precipitaciones de 06:00 a 12:00 en mm
DESCASC
Precipitaciones de 12:00 a 18:00 en mm
DESCASC
Precipitaciones de 18:00 a 24:00 en mm
DESCASC
16-01-2020 19 (14:10) 3.2 (08:30) 11.1 5.56 (15:20) 3.33 (15:20) 0 0 0 0 0
15-01-2020 15.4 (14:50) 1.5 (07:50) 8.4 5 (07:30) 3.61 (04:20) 0 0 0 0 0
14-01-2020 16.2 (12:20) 0.5 (07:10) 8.4 6.11 (02:10) 3.89 (02:10) 0 0 0 0 0
13-01-2020 14.3 (12:50) -0.5 (08:30) 6.9 5.28 (23:59) 3.33 (23:59) 0 0 0 0 0
12-01-2020 15.7 (12:50) 0.4 (00:00) 8 5 (11:10) 2.78 (07:30) 0 0 0 0 0
11-01-2020 15.9 (14:20) 1.9 (00:00) 8.9 5.28 (01:00) 3.33 (02:20) 0 0 0 0 0
10-01-2020 15.2 (11:50) 5.7 (00:00) 10.4 9.44 (05:00) 5.83 (13:10) 0 0 0 0 0
09-01-2020 15.4 (15:20) 2.8 (00:00) 9.1 6.11 (14:10) 3.33 (14:00) 0 0 0 0 0
08-01-2020 18.1 (15:30) 3.7 (00:00) 10.9 5.83 (09:40) 3.61 (09:40) 0 0 0 0 0
07-01-2020 14.8 (13:20) 3.1 (00:00) 9 6.39 (06:50) 3.89 (01:30) 0 0 0 0 0
06-01-2020 16.3 (13:10) 3.1 (00:00) 9.7 7.22 (23:10) 4.17 (21:00) 0 0 0 0 0
05-01-2020 17.7 (13:50) 3.2 (00:00) 10.5 5.56 (10:00) 3.33 (10:10) 0 0 0 0 0
04-01-2020 16.2 (14:50) 3.3 (00:00) 9.8 5.83 (02:20) 2.78 (13:20) 0 0 0 0 0
03-01-2020 13.7 (15:00) 3.8 (00:00) 8.7 8.06 (07:20) 4.72 (07:00) 0 0 0 0 0
02-01-2020 14.3 (14:00) 3.5 (00:00) 8.9 7.5 (05:20) 4.17 (06:40) 0 0 0 0 0
01-01-2020 9.1 (15:10) 4.1 (00:00) 6.6 9.17 (00:20) 5.83 (01:30) 0 0 0 0 0
31-12-2019 14.4 (14:10) 4.7 (00:00) 9.5 9.72 (23:20) 5.56 (23:30) 0 0 0 0 0
30-12-2019 16.8 (14:50) 5.3 (00:00) 11 8.89 (23:40) 5.56 (23:30) 0 0 0 0 0
29-12-2019 16.9 (14:00) 6.3 (00:00) 11.6 6.67 (23:40) 3.89 (21:30) 0 0 0 0 0
28-12-2019 15.9 (14:00) 3.3 (00:00) 9.6 5.28 (12:10) 2.78 (04:20) 0 0 0 0 0
27-12-2019 17.3 (14:30) 4.1 (00:00) 10.7 4.17 (10:50) 2.78 (11:10) 0 0 0 0 0
26-12-2019 22.2 (12:20) 8 (00:00) 15.1 10 (13:00) 5.56 (13:00) 0 0 0 0 0
25-12-2019 20.3 (13:00) 6.8 (00:00) 13.5 5.28 (06:20) 2.78 (07:40) 0 0 0 0 0
24-12-2019 23 (13:00) 8.3 (00:00) 15.7 6.11 (10:30) 2.78 (21:30) 0 0 0 0 0
23-12-2019 21.9 (14:30) 8.4 (00:00) 15.1 13.89 (01:30) 6.67 (01:30) 0 0 0 0 0
22-12-2019 24.3 (15:10) 15.8 (00:00) 20 18.06 (02:30) 8.61 (02:50) 0 0 0 0 0
21-12-2019 23.7 (17:40) 11.1 (00:00) 17.4 17.78 (21:40) 10 (21:40) 0 0 0 0 0
20-12-2019 17.7 (13:40) 10.6 (00:00) 14.2 9.17 (08:00) 5.28 (08:00) 0.7 0 0 0 0.7

Gráficas

Temp. máximas Temp. mínimas Temp. medias Precipitaciones Rachas de viento máximas Velocidades máximas media en intervalos de 10 minutos

Datos horarios

Fecha y hora oficial Temperatura (ºC) Velocidad del viento (km/h) Dirección del viento Racha (km/h) Dirección de racha Precipitación (mm) Presión (hPa) Tendencia (hPa) Humedad (%)
2020-01-18 23:00:00 10 6 Noroeste 15 Nordeste 0 -- -- 76
2020-01-18 22:00:00 10.6 8 Norte 12 Norte 0 -- -- 73
2020-01-18 21:00:00 10.7 7 Norte 11 Norte 0 -- -- 73
2020-01-18 20:00:00 10.6 5 Norte 9 Norte 0 -- -- 74
2020-01-18 19:00:00 11.1 3 Nordeste 7 Norte 0 -- -- 73
2020-01-18 18:00:00 11.8 3 Nordeste 10 Sudeste 0 -- -- 70
2020-01-18 17:00:00 12.6 5 Sudeste 15 Sur 0 -- -- 60
2020-01-18 16:00:00 13.5 8 Sur 21 Sudeste 0 -- -- 51
2020-01-18 15:00:00 14.4 10 Sudeste 20 Sudeste 0 -- -- 48
2020-01-18 14:00:00 15.6 11 Sudeste 24 Sur 0 -- -- 47
2020-01-18 13:00:00 13.6 10 Sur 20 Sur 0 -- -- 49
2020-01-18 12:00:00 13 8 Sur 13 Sur 0 -- -- 45
2020-01-18 11:00:00 11.7 5 Noroeste 8 Noroeste 0 -- -- 51
2020-01-18 10:00:00 9.1 6 Noroeste 12 Norte 0 -- -- 58
2020-01-18 09:00:00 6.7 5 Norte 13 Noroeste 0 -- -- 63
2020-01-18 08:00:00 6.6 6 Norte 12 Norte 0 -- -- 60
2020-01-18 07:00:00 6.8 7 Norte 10 Norte 0 -- -- 59
2020-01-18 06:00:00 7.9 7 Norte 12 Norte 0 -- -- 53
2020-01-18 05:00:00 9 5 Norte 17 Noroeste 0 -- -- 50
2020-01-18 04:00:00 9.8 12 Noroeste 21 Noroeste 0 -- -- 51
2020-01-18 03:00:00 7.1 9 Noroeste 14 Oeste 0 -- -- 59
2020-01-18 02:00:00 7.3 9 Oeste 20 Oeste 0 -- -- 56
2020-01-18 01:00:00 8.1 12 Oeste 18 Oeste 0 -- -- 54
2020-01-18 00:00:00 8.7 9 Noroeste 21 Noroeste 0 -- -- 52
2020-01-17 23:00:00 8.4 7 Noroeste 14 Noroeste 0 -- -- 57
2020-01-17 22:00:00 8.4 6 Noroeste 11 Noroeste 0 -- -- 54
2020-01-17 21:00:00 9.7 4 Noroeste 20 Noroeste 0 -- -- 45
2020-01-17 20:00:00 12.5 10 Noroeste 33 Norte 0 -- -- 34
2020-01-17 19:00:00 12.8 5 Nordeste 27 Oeste 0 -- -- 31
2020-01-17 18:00:00 15.5 14 Noroeste 37 Noroeste 0 -- -- 27
2020-01-17 17:00:00 17.5 14 Noroeste 32 Noroeste 0 -- -- 26
2020-01-17 16:00:00 19 16 Noroeste 42 Noroeste 0 -- -- 25
2020-01-17 15:00:00 19.8 19 Noroeste 42 Oeste 0 -- -- 24
2020-01-17 14:00:00 18.5 18 Noroeste 36 Noroeste 0 -- -- 25
2020-01-17 13:00:00 20.1 9 Oeste 22 Noroeste 0 -- -- 26
2020-01-17 12:00:00 18.4 9 Oeste 19 Oeste 0 -- -- 28
2020-01-17 11:00:00 16.6 10 Oeste 17 Oeste 0 -- -- 36
2020-01-17 10:00:00 10.1 9 Norte 16 Norte 0 -- -- 81
2020-01-17 09:00:00 6.7 8 Noroeste 16 Noroeste 0 -- -- 82
2020-01-17 08:00:00 4.6 9 Norte 15 Norte 0 -- -- 82
2020-01-17 07:00:00 5 7 Norte 12 Norte 0 -- -- 82
2020-01-17 06:00:00 5.4 6 Norte 14 Norte 0 -- -- 82
2020-01-17 05:00:00 4.4 8 Norte 15 Norte 0 -- -- 81
2020-01-17 04:00:00 4.3 9 Noroeste 12 Noroeste 0 -- -- 81
2020-01-17 03:00:00 5 7 Norte 10 Norte 0 -- -- 81
2020-01-17 02:00:00 5.4 6 Norte 12 Noroeste 0 -- -- 81
2020-01-17 01:00:00 6 5 Norte 10 Norte 0 -- -- 81
2020-01-17 00:00:00 6.2 5 Norte 9 Norte 0 -- -- 81
2020-01-16 23:00:00 6.6 4 Norte 6 Norte 0 -- -- 81
2020-01-16 22:00:00 7.2 3 Norte 11 Noroeste 0 -- -- 81
2020-01-16 21:00:00 8.1 2 Noroeste 6 Noroeste 0 -- -- 81
2020-01-16 20:00:00 10 0 Calma 6 Sudoeste 0 -- -- 79
2020-01-16 19:00:00 11.3 0 Calma 6 Este 0 -- -- 79
2020-01-16 18:00:00 11.1 3 Sur 12 Sur 0 -- -- 79
2020-01-16 17:00:00 14 7 Sudeste 15 Sudeste 0 -- -- 65
2020-01-16 16:00:00 16.1 8 Sudeste 20 Sudeste 0 -- -- 45
2020-01-16 15:00:00 15.9 11 Sudeste 19 Sudeste 0 -- -- 40
2020-01-16 14:00:00 18.7 7 Sudeste 14 Sudeste 0 -- -- 35
2020-01-16 13:00:00 17.2 4 Sudeste 9 Sudeste 0 -- -- 38
2020-01-16 12:00:00 15.6 2 Sur 8 Norte 0 -- -- 41
2020-01-16 11:00:00 12.5 6 Norte 11 Noroeste 0 -- -- 53
2020-01-16 10:00:00 8.4 6 Noroeste 11 Noroeste 0 -- -- 71
2020-01-16 09:00:00 5 4 Norte 9 Norte 0 -- -- 81
2020-01-16 08:00:00 3.5 8 Norte 11 Noroeste 0 -- -- 81
2020-01-16 07:00:00 4.6 8 Noroeste 13 Norte 0 -- -- 80
2020-01-16 06:00:00 5.1 8 Noroeste 13 Noroeste 0 -- -- 79
2020-01-16 05:00:00 4.5 6 Norte 15 Noroeste 0 -- -- 79
2020-01-16 04:00:00 5.5 8 Noroeste 14 Noroeste 0 -- -- 79
2020-01-16 03:00:00 4.4 6 Noroeste 13 Norte 0 -- -- 81
2020-01-16 02:00:00 4.8 7 Norte 12 Noroeste 0 -- -- 80
2020-01-16 01:00:00 5.4 8 Norte 17 Noroeste 0 -- -- 80
2020-01-16 00:00:00 5.2 8 Norte 14 Norte 0 -- -- 81
2020-01-15 23:00:00 4.8 7 Noroeste 12 Noroeste 0 -- -- 81
2020-01-15 22:00:00 5.4 6 Norte 13 Noroeste 0 -- -- 79
2020-01-15 21:00:00 6.3 5 Noroeste 10 Norte 0 -- -- 81
2020-01-15 20:00:00 6.4 5 Norte 9 Norte 0 -- -- 79
2020-01-15 19:00:00 7.9 6 Norte 9 Norte 0 -- -- 76
2020-01-15 18:00:00 10.1 4 Sudeste 9 Sudeste 0 -- -- 67
2020-01-15 17:00:00 13.9 5 Sur 12 Sur 0 -- -- 50
2020-01-15 16:00:00 13.5 7 Sudeste 16 Sudeste 0 -- -- 51
2020-01-15 15:00:00 13.5 8 Sudeste 15 Sur 0 -- -- 46
2020-01-15 14:00:00 13.5 7 Sudeste 13 Sudeste 0 -- -- 45
2020-01-15 13:00:00 14.6 6 Sur 13 Sur 0 -- -- 35
2020-01-15 12:00:00 13.9 3 Sudoeste 9 Sudoeste 0 -- -- 37
2020-01-15 11:00:00 10.1 3 Norte 8 Norte 0 -- -- 54
2020-01-15 10:00:00 6.1 5 Norte 12 Noroeste 0 -- -- 64
2020-01-15 09:00:00 2.7 8 Noroeste 16 Noroeste 0 -- -- 74
2020-01-15 08:00:00 1.7 10 Norte 18 Noroeste 0 -- -- 76
2020-01-15 07:00:00 2.1 9 Norte 14 Norte 0 -- -- 76
2020-01-15 06:00:00 1.8 9 Noroeste 15 Norte 0 -- -- 77
2020-01-15 05:00:00 2 9 Norte 17 Norte 0 -- -- 77
2020-01-15 04:00:00 2.4 10 Norte 17 Norte 0 -- -- 77
2020-01-15 03:00:00 2 9 Norte 14 Noroeste 0 -- -- 80
2020-01-15 02:00:00 2.7 8 Norte 17 Noroeste 0 -- -- 80
2020-01-15 01:00:00 2.7 10 Norte 15 Norte 0 -- -- 82
2020-01-15 00:00:00 2.2 9 Noroeste 13 Norte 0 -- -- 82
2020-01-14 23:00:00 2.4 5 Norte 13 Noroeste 0 -- -- 82
2020-01-14 22:00:00 3.2 7 Noroeste 10 Noroeste 0 -- -- 82
2020-01-14 21:00:00 3.4 5 Norte 8 Noroeste 0 -- -- 82
2020-01-14 20:00:00 5.1 6 Noroeste 9 Norte 0 -- -- 79
2020-01-14 19:00:00 6.5 3 Nordeste 4 Norte 0 -- -- 73
2020-01-14 18:00:00 9.4 3 Sudeste 9 Sur 0 -- -- 60
2020-01-14 17:00:00 13.1 5 Sur 12 Sudeste 0 -- -- 45
2020-01-14 16:00:00 14 8 Sudeste 15 Sudeste 0 -- -- 38
2020-01-14 15:00:00 14.3 9 Sudeste 17 Sudeste 0 -- -- 38
2020-01-14 14:00:00 15.3 7 Sudeste 15 Sudeste 0 -- -- 34
2020-01-14 13:00:00 14.9 6 Sudeste 14 Sudeste 0 -- -- 30
2020-01-14 12:00:00 13.8 0 Calma 7 Noroeste 0 -- -- 32
2020-01-14 11:00:00 10.4 5 Norte 14 Norte 0 -- -- 38
2020-01-14 10:00:00 5.7 8 Norte 13 Noroeste 0 -- -- 58
2020-01-14 09:00:00 2 8 Noroeste 15 Norte 0 -- -- 69
2020-01-14 08:00:00 1.1 10 Norte 16 Norte 0 -- -- 72
2020-01-14 07:00:00 0.7 9 Noroeste 15 Norte 0 -- -- 72
2020-01-14 06:00:00 1.6 9 Norte 14 Norte 0 -- -- 71
2020-01-14 05:00:00 1.3 6 Norte 18 Noroeste 0 -- -- 70
2020-01-14 04:00:00 2.3 10 Noroeste 17 Norte 0 -- -- 70
2020-01-14 03:00:00 2.4 11 Norte 22 Norte 0 -- -- 73
2020-01-14 02:00:00 2.8 13 Norte 20 Norte 0 -- -- 73
2020-01-14 01:00:00 2.6 10 Norte 19 Norte 0 -- -- 77
2020-01-14 00:00:00 2 12 Norte 19 Norte 0 -- -- 77
2020-01-13 23:00:00 3.1 7 Norte 11 Norte 0 -- -- 75
2020-01-13 22:00:00 3.2 7 Noroeste 12 Norte 0 -- -- 73
2020-01-13 21:00:00 4.8 7 Norte 13 Norte 0 -- -- 71
2020-01-13 20:00:00 6 7 Norte 11 Norte 0 -- -- 74
2020-01-13 19:00:00 6.3 6 Norte 8 Norte 0 -- -- 76
2020-01-13 18:00:00 8.5 0 Calma 7 Sudeste 0 -- -- 67
2020-01-13 17:00:00 10.9 3 Sudeste 10 Sudeste 0 -- -- 54
2020-01-13 16:00:00 11.5 4 Sudeste 10 Sudeste 0 -- -- 48
2020-01-13 15:00:00 12.4 5 Sudeste 14 Sudeste 0 -- -- 47
2020-01-13 14:00:00 13 9 Sudeste 16 Sur 0 -- -- 48
2020-01-13 13:00:00 13.8 6 Sudeste 13 Sur 0 -- -- 38
2020-01-13 12:00:00 13.2 5 Sur 10 Sudeste 0 -- -- 33
2020-01-13 11:00:00 8.7 6 Norte 14 Norte 0 -- -- 45
2020-01-13 10:00:00 3.8 8 Norte 14 Norte 0 -- -- 61
2020-01-13 09:00:00 1.1 9 Noroeste 13 Noroeste 0 -- -- 75
2020-01-13 08:00:00 0 8 Noroeste 13 Norte 0 -- -- 74
2020-01-13 07:00:00 1 10 Norte 16 Norte 0 -- -- 73
2020-01-13 06:00:00 0.7 9 Norte 15 Norte 0 -- -- 76
2020-01-13 05:00:00 1.4 11 Norte 16 Noroeste 0 -- -- 75
2020-01-13 04:00:00 1.3 9 Norte 14 Norte 0 -- -- 77
2020-01-13 03:00:00 0.6 8 Noroeste 13 Noroeste 0 -- -- 78
2020-01-13 02:00:00 1.1 9 Norte 13 Norte 0 -- -- 76
2020-01-13 01:00:00 1.5 7 Norte 12 Noroeste 0 -- -- 76
2020-01-13 00:00:00 1 6 Norte 12 Noroeste 0 -- -- 78
2020-01-12 23:00:00 1.7 5 Norte 9 Noroeste 0 -- -- 78
2020-01-12 22:00:00 2 6 Noroeste 9 Norte 0 -- -- 78
2020-01-12 21:00:00 2.6 5 Norte 10 Noroeste 0 -- -- 76
2020-01-12 20:00:00 4.1 6 Noroeste 10 Norte 0 -- -- 73
2020-01-12 19:00:00 5.6 4 Nordeste 6 Norte 0 -- -- 69
2020-01-12 18:00:00 8.8 3 Oeste 8 Sudeste 0 -- -- 53
2020-01-12 17:00:00 12.8 5 Sudeste 12 Sudeste 0 -- -- 38
2020-01-12 16:00:00 15.3 5 Sur 14 Sudeste 0 -- -- 30
2020-01-12 15:00:00 13.7 9 Sudeste 15 Sudeste 0 -- -- 34
2020-01-12 14:00:00 13.7 10 Sudeste 15 Sudeste 0 -- -- 35
2020-01-12 13:00:00 14 3 Nordeste 13 Nordeste 0 -- -- 30
2020-01-12 12:00:00 12.3 8 Norte 18 Norte 0 -- -- 32
2020-01-12 11:00:00 9.7 10 Nordeste 17 Nordeste 0 -- -- 42
2020-01-12 10:00:00 5.9 8 Norte 13 Norte 0 -- -- 61
2020-01-12 09:00:00 2.5 8 Norte 14 Noroeste 0 -- -- 79
2020-01-12 08:00:00 0.6 8 Norte 13 Norte 0 -- -- 82
2020-01-12 07:00:00 1.1 9 Norte 13 Norte 0 -- -- 82
2020-01-12 06:00:00 0.8 7 Noroeste 13 Noroeste 0 -- -- 82
2020-01-12 05:00:00 1 9 Noroeste 13 Noroeste 0 -- -- 82
2020-01-12 04:00:00 1.3 8 Norte 14 Noroeste 0 -- -- 82
2020-01-12 03:00:00 1.3 8 Norte 15 Norte 0 -- -- 82
2020-01-12 02:00:00 1.3 9 Noroeste 12 Noroeste 0 -- -- 82
2020-01-12 01:00:00 2.1 4 Norte 10 Noroeste 0 -- -- 81
2020-01-12 00:00:00 2.1 8 Noroeste 11 Noroeste 0 -- -- 81
2020-01-11 23:00:00 3.8 6 Noroeste 12 Noroeste 0 -- -- 81
2020-01-11 22:00:00 3.9 8 Norte 13 Noroeste 0 -- -- 80
2020-01-11 21:00:00 5.4 5 Noroeste 9 Noroeste 0 -- -- 79
2020-01-11 20:00:00 5 7 Norte 9 Norte 0 -- -- 75
2020-01-11 19:00:00 6.1 3 Norte 5 Norte 0 -- -- 70
2020-01-11 18:00:00 9.1 4 Sur 11 Sur 0 -- -- 54
2020-01-11 17:00:00 12.7 7 Sur 15 Sur 0 -- -- 40
2020-01-11 16:00:00 14.3 9 Sur 18 Sur 0 -- -- 35
2020-01-11 15:00:00 14.5 7 Sur 15 Sur 0 -- -- 35
2020-01-11 14:00:00 15.2 10 Sudeste 19 Sudeste 0 -- -- 35
2020-01-11 13:00:00 14.4 10 Sudeste 18 Sudeste 0 -- -- 38
2020-01-11 12:00:00 13.9 8 Norte 14 Norte 0 -- -- 36
2020-01-11 11:00:00 10.6 7 Norte 16 Nordeste 0 -- -- 46
2020-01-11 10:00:00 6.8 7 Norte 12 Norte 0 -- -- 64
2020-01-11 09:00:00 3.6 8 Norte 12 Norte 0 -- -- 73
2020-01-11 08:00:00 2.6 7 Noroeste 12 Norte 0 -- -- 78
2020-01-11 07:00:00 2.7 8 Norte 11 Norte 0 -- -- 78
2020-01-11 06:00:00 3.1 8 Norte 9 Norte 0 -- -- 76
2020-01-11 05:00:00 4.1 8 Norte 11 Norte 0 -- -- 75
2020-01-11 04:00:00 4.6 8 Norte 10 Norte 0 -- -- 74
2020-01-11 03:00:00 4.5 5 Norte 19 Noroeste 0 -- -- 71
2020-01-11 02:00:00 6.3 9 Norte 15 Norte 0 -- -- 64
2020-01-11 01:00:00 7.8 10 Noroeste 19 Noroeste 0 -- -- 60
2020-01-11 00:00:00 8.8 13 Noroeste 20 Noroeste 0 -- -- 57
2020-01-10 23:00:00 8.7 11 Noroeste 17 Noroeste 0 -- -- 58
2020-01-10 22:00:00 6.7 6 Norte 16 Noroeste 0 -- -- 66
2020-01-10 21:00:00 7.7 6 Norte 12 Noroeste 0 -- -- 67
2020-01-10 20:00:00 8.6 6 Norte 15 Noroeste 0 -- -- 67
2020-01-10 19:00:00 9.5 7 Noroeste 11 Noroeste 0 -- -- 63
2020-01-10 18:00:00 10.3 5 Norte 9 Nordeste 0 -- -- 55
2020-01-10 17:00:00 11.2 5 Norte 15 Norte 0 -- -- 52
2020-01-10 16:00:00 11.6 8 Norte 18 Nordeste 0 -- -- 50
2020-01-10 15:00:00 11.3 8 Norte 19 Nordeste 0 -- -- 54
2020-01-10 14:00:00 10.6 9 Nordeste 32 Nordeste 0 -- -- 60
2020-01-10 13:00:00 10.9 18 Nordeste 30 Nordeste 0 -- -- 47
2020-01-10 12:00:00 13 12 Norte 31 Norte 0 -- -- 37
2020-01-10 11:00:00 11.4 14 Norte 32 Norte 0 -- -- 43
2020-01-10 10:00:00 8.4 3 Noroeste 14 Noroeste 0 -- -- 71
2020-01-10 09:00:00 8.7 2 Sur 14 Oeste 0 -- -- 68
2020-01-10 08:00:00 7.6 0 Calma 9 Sudoeste 0 -- -- 73
2020-01-10 07:00:00 7.2 5 Noroeste 15 Noroeste 0 -- -- 73
2020-01-10 06:00:00 7.5 10 Noroeste 27 Nordeste 0 -- -- 72
2020-01-10 05:00:00 7.6 17 Nordeste 34 Nordeste 0 -- -- 73
2020-01-10 04:00:00 6.6 11 Norte 17 Nordeste 0 -- -- 81
2020-01-10 03:00:00 6.5 6 Norte 9 Norte 0 -- -- 81
2020-01-10 02:00:00 7.2 5 Norte 10 Norte 0 -- -- 81
2020-01-10 01:00:00 5.8 7 Norte 11 Noroeste 0 -- -- 81
2020-01-10 00:00:00 6.7 5 Norte 9 Norte 0 -- -- 81
2020-01-09 23:00:00 7.5 4 Norte 6 Norte 0 -- -- 81
2020-01-09 22:00:00 7 0 Calma -- -- 0 -- -- 81
2020-01-09 21:00:00 8.5 0 Calma 8 Sudeste 0 -- -- 79
2020-01-09 20:00:00 8.4 5 Sudeste 8 Sudeste 0 -- -- 79
2020-01-09 19:00:00 9.2 3 Sur 9 Sudeste 0 -- -- 79
2020-01-09 18:00:00 10.5 6 Sudeste 18 Sudeste 0 -- -- 76
2020-01-09 17:00:00 13.1 12 Sudeste 20 Sudeste 0 -- -- 62
2020-01-09 16:00:00 14.8 9 Sudeste 19 Sudeste 0 -- -- 57
2020-01-09 15:00:00 15 9 Sudeste 22 Sur 0 -- -- 59
2020-01-09 14:00:00 13.3 12 Sur 20 Sur 0 -- -- 63
2020-01-09 13:00:00 13.3 10 Sur 19 Sur 0 -- -- 60
2020-01-09 12:00:00 13.6 8 Sur 17 Sudeste 0 -- -- 55
2020-01-09 11:00:00 10.2 5 Norte 12 Norte 0 -- -- 61
2020-01-09 10:00:00 6.1 7 Norte 13 Norte 0 -- -- 80
2020-01-09 09:00:00 4.1 8 Norte 14 Norte 0 -- -- 82
2020-01-09 08:00:00 3.6 8 Norte 12 Norte 0 -- -- 82
2020-01-09 07:00:00 3.4 7 Norte 13 Norte 0 -- -- 82
2020-01-09 06:00:00 3.3 7 Norte 14 Norte 0 -- -- 82
2020-01-09 05:00:00 3.5 7 Noroeste 12 Norte 0 -- -- 82
2020-01-09 04:00:00 3.7 8 Norte 12 Norte 0 -- -- 82
2020-01-09 03:00:00 4 6 Norte 14 Norte 0 -- -- 81
2020-01-09 02:00:00 4.4 5 Norte 12 Norte 0 -- -- 81
2020-01-09 01:00:00 5.1 9 Noroeste 14 Norte 0 -- -- 81
2020-01-09 00:00:00 5.5 7 Norte 12 Norte 0 -- -- 81
2020-01-08 23:00:00 6.2 8 Norte 11 Norte 0 -- -- 79
2020-01-08 22:00:00 5.1 4 Norte 8 Noroeste 0 -- -- 80
2020-01-08 21:00:00 6.4 5 Noroeste 9 Noroeste 0 -- -- 77
2020-01-08 20:00:00 7.9 5 Noroeste 7 Noroeste 0 -- -- 75
2020-01-08 19:00:00 9.8 3 Este 5 Este 0 -- -- 67
2020-01-08 18:00:00 11.9 4 Sudeste 9 Sudeste 0 -- -- 56
2020-01-08 17:00:00 16.4 4 Sudeste 10 Sudeste 0 -- -- 42
2020-01-08 16:00:00 16.8 5 Sur 12 Sudeste 0 -- -- 39
2020-01-08 15:00:00 16.3 4 Sur 13 Sudeste 0 -- -- 41
2020-01-08 14:00:00 15.9 3 Nordeste 13 Nordeste 0 -- -- 41
2020-01-08 13:00:00 14.2 8 Norte 14 Nordeste 0 -- -- 45
2020-01-08 12:00:00 12.7 6 Norte 14 Norte 0 -- -- 52
2020-01-08 11:00:00 8.1 9 Norte 20 Nordeste 0 -- -- 66
2020-01-08 10:00:00 6.1 10 Nordeste 21 Nordeste 0 -- -- 77
2020-01-08 09:00:00 4.6 10 Norte 19 Nordeste 0 -- -- 80
2020-01-08 08:00:00 3.8 10 Norte 17 Norte 0 -- -- 81
2020-01-08 07:00:00 4.4 9 Norte 14 Norte 0 -- -- 81
2020-01-08 06:00:00 4.4 8 Norte 11 Norte 0 -- -- 81
2020-01-08 05:00:00 4.2 7 Norte 14 Norte 0 -- -- 80
2020-01-08 04:00:00 4.4 8 Norte 14 Norte 0 -- -- 80
2020-01-08 03:00:00 4.8 10 Norte 19 Nordeste 0 -- -- 80
2020-01-08 02:00:00 4.2 10 Norte 19 Norte 0 -- -- 79
2020-01-08 01:00:00 5.3 10 Norte 16 Norte 0 -- -- 75
2020-01-08 00:00:00 5.2 12 Norte 19 Norte 0 -- -- 73
2020-01-07 23:00:00 6.2 9 Norte 16 Norte 0 -- -- 66
2020-01-07 22:00:00 7.4 9 Norte 15 Norte 0 -- -- 63
2020-01-07 21:00:00 7.2 9 Norte 16 Norte 0 -- -- 63
2020-01-07 20:00:00 7.3 8 Norte 16 Norte 0 -- -- 63
2020-01-07 19:00:00 8.3 6 Norte 9 Norte 0 -- -- 76
2020-01-07 18:00:00 8.8 5 Sudeste 8 Sudeste 0 -- -- 77
2020-01-07 17:00:00 12.2 4 Sudeste 10 Sudeste 0 -- -- 60
2020-01-07 16:00:00 12.8 6 Sudeste 16 Sudeste 0 -- -- 52
2020-01-07 15:00:00 13.3 8 Sudeste 17 Sudeste 0 -- -- 52
2020-01-07 14:00:00 13.4 9 Sudeste 15 Sudeste 0 -- -- 52
2020-01-07 13:00:00 13.5 4 Sudoeste 12 Oeste 0 -- -- 42
2020-01-07 12:00:00 12 6 Nordeste 14 Norte 0 -- -- 45
2020-01-07 11:00:00 9.2 9 Norte 19 Norte 0 -- -- 51
2020-01-07 10:00:00 6.6 10 Norte 18 Nordeste 0 -- -- 63
2020-01-07 09:00:00 4.2 11 Norte 19 Norte 0 -- -- 76
2020-01-07 08:00:00 3.6 13 Norte 19 Norte 0 -- -- 79
2020-01-07 07:00:00 4.2 12 Norte 23 Norte 0 -- -- 83
2020-01-07 06:00:00 4.3 12 Norte 21 Norte 0 -- -- 80
2020-01-07 05:00:00 4.6 10 Norte 19 Norte 0 -- -- 77
2020-01-07 04:00:00 4.5 13 Nordeste 22 Nordeste 0 -- -- 74
2020-01-07 03:00:00 4.8 13 Norte 21 Norte 0 -- -- 74
2020-01-07 02:00:00 5.1 13 Norte 22 Norte 0 -- -- 73
2020-01-07 01:00:00 4.3 13 Norte 21 Norte 0 -- -- 77
2020-01-07 00:00:00 3.7 12 Norte 26 Norte 0 -- -- 77
2020-01-06 23:00:00 5 13 Norte 24 Nordeste 0 -- -- 76
2020-01-06 22:00:00 5.7 13 Norte 25 Norte 0 -- -- 76
2020-01-06 21:00:00 6 15 Nordeste 24 Nordeste 0 -- -- 74
2020-01-06 20:00:00 6.2 13 Norte 20 Nordeste 0 -- -- 73
2020-01-06 19:00:00 7.4 9 Norte 14 Norte 0 -- -- 72
2020-01-06 18:00:00 10 0 Calma 9 Sudeste 0 -- -- 68
2020-01-06 17:00:00 13.3 5 Sudeste 12 Sudeste 0 -- -- 51
2020-01-06 16:00:00 14.3 7 Sudeste 17 Sudeste 0 -- -- 49
2020-01-06 15:00:00 14.4 9 Sur 21 Sudeste 0 -- -- 47
2020-01-06 14:00:00 15.7 4 Sudeste 14 Sur 0 -- -- 45
2020-01-06 13:00:00 15.1 4 Sur 13 Sudeste 0 -- -- 47
2020-01-06 12:00:00 14.8 3 Noroeste 11 Norte 0 -- -- 48
2020-01-06 11:00:00 8.9 10 Norte 17 Norte 0 -- -- 68
2020-01-06 10:00:00 6.2 10 Norte 17 Norte 0 -- -- 76